Time;durP1;ratioP1;P1;durP2;ratioP2;P2;SDS_P1;SDS_P2;PMS_P1;PMS_P2;Temp;Humidity;BMP_temperature;BMP_pressure;BME280_temperature;BME280_humidity;BME280_pressure;Samples;Min_cycle;Max_cycle;Signal;HPM_P1;HPM_P2
2021/10/28 00:14:54;;;;;;;;;31.00;30.00;;;;;14.34;45.35;99712.88;7646115;22;97917;-63
2021/10/28 00:18:12;;;;;;;;;38.00;32.25;;;;;14.19;45.86;99715.13;7698863;22;96967;-65
2021/10/28 00:21:16;;;;;;;;;34.00;30.75;;;;;14.06;45.50;99712.56;7697867;22;96937;-66
2021/10/28 00:24:22;;;;;;;;;36.60;32.00;;;;;13.75;45.43;99686.38;7697538;22;97064;-66
2021/10/28 00:27:25;;;;;;;;;46.50;36.00;;;;;13.69;45.11;99709.78;7697249;22;96425;-63
2021/10/28 00:30:29;;;;;;;;;42.00;36.00;;;;;13.49;44.99;99711.00;7699134;22;97321;-64
2021/10/28 00:33:34;;;;;;;;;43.50;36.00;;;;;13.27;45.21;99710.53;7700628;22;97615;-63
2021/10/28 00:36:38;;;;;;;;;46.00;38.00;;;;;13.05;45.28;99711.91;7700424;22;96995;-65
2021/10/28 00:39:44;;;;;;;;;48.40;38.20;;;;;12.85;45.88;99718.25;7696456;22;97819;-65
2021/10/28 00:42:47;;;;;;;;;47.25;37.25;;;;;12.78;46.54;99724.75;7699541;22;97048;-65
2021/10/28 00:45:51;;;;;;;;;47.00;37.50;;;;;12.60;46.43;99720.06;7672006;22;100228;-63
2021/10/28 00:48:56;;;;;;;;;50.00;40.00;;;;;12.61;46.29;99720.88;7699373;22;96974;-65
2021/10/28 00:51:59;;;;;;;;;48.40;40.00;;;;;12.52;46.66;99728.38;7699739;22;96423;-65
2021/10/28 00:55:05;;;;;;;;;48.40;38.40;;;;;12.48;46.84;99729.88;7699609;22;96399;-65
2021/10/28 00:58:09;;;;;;;;;47.00;36.00;;;;;12.44;46.41;99740.28;7697853;22;96995;-64
2021/10/28 01:01:12;;;;;;;;;45.00;38.00;;;;;12.42;46.61;99738.81;7699850;22;97016;-64
2021/10/28 01:04:16;;;;;;;;;48.60;40.00;;;;;12.37;46.25;99734.06;7698134;22;96988;-65
2021/10/28 01:07:19;;;;;;;;;50.00;37.40;;;;;12.33;46.68;99730.13;7697455;22;97112;-65
2021/10/28 01:10:25;;;;;;;;;48.00;39.00;;;;;12.25;46.76;99727.66;7670140;22;96888;-65
2021/10/28 01:13:28;;;;;;;;;47.00;38.60;;;;;12.13;46.95;99735.56;7697568;22;96910;-64
2021/10/28 01:16:32;;;;;;;;;51.80;40.80;;;;;12.01;47.01;99734.56;7669442;22;96602;-65
2021/10/28 01:19:35;;;;;;;;;49.00;40.00;;;;;11.88;47.42;99734.56;7669530;22;98284;-65
2021/10/28 01:22:43;;;;;;;;;49.00;40.00;;;;;11.80;47.71;99742.91;7647382;22;98438;-65
2021/10/28 01:25:53;;;;;;;;;49.20;39.40;;;;;11.59;47.37;99692.56;7699530;22;96995;-63
2021/10/28 01:28:57;;;;;;;;;47.00;39.00;;;;;11.80;47.38;99725.84;7672572;22;97745;-65
2021/10/28 01:32:01;;;;;;;;;46.00;38.00;;;;;11.81;47.31;99722.13;7701509;22;96480;-63
2021/10/28 01:35:05;;;;;;;;;47.50;38.25;;;;;11.81;47.43;99719.41;7699855;22;96409;-65
2021/10/28 01:38:11;;;;;;;;;48.00;38.00;;;;;11.76;47.28;99721.91;7646758;22;98302;-63
2021/10/28 01:41:19;;;;;;;;;45.00;35.80;;;;;11.64;47.40;99708.16;7699556;22;97453;-65
2021/10/28 01:44:27;;;;;;;;;45.00;36.00;;;;;11.79;47.37;99719.63;7700599;22;96491;-64
2021/10/28 01:47:30;;;;;;;;;45.00;38.00;;;;;11.79;47.02;99716.91;7700008;22;97337;-65
2021/10/28 01:50:34;;;;;;;;;45.60;36.00;;;;;11.82;48.04;99712.97;7701892;22;96447;-65
2021/10/28 01:53:41;;;;;;;;;47.60;37.60;;;;;11.86;48.00;99715.03;7697374;22;96485;-66
2021/10/28 01:56:45;;;;;;;;;47.00;38.50;;;;;11.83;47.72;99709.22;7696080;22;96707;-63
2021/10/28 01:59:49;;;;;;;;;45.60;38.00;;;;;11.79;48.41;99710.66;7699988;22;96638;-65
2021/10/28 02:02:53;;;;;;;;;43.75;36.00;;;;;11.78;48.22;99704.44;7671112;22;96731;-64
2021/10/28 02:05:57;;;;;;;;;49.25;39.00;;;;;11.81;48.03;99709.44;7671068;22;97005;-63
2021/10/28 02:09:02;;;;;;;;;47.00;36.60;;;;;11.82;47.90;99702.16;7671680;22;98446;-63
2021/10/28 02:12:06;;;;;;;;;40.20;35.00;;;;;11.84;48.03;99697.38;7699965;22;96405;-63
2021/10/28 02:15:12;;;;;;;;;45.00;37.00;;;;;11.87;47.80;99703.22;7699110;22;97379;-64
2021/10/28 02:18:15;;;;;;;;;42.50;35.25;;;;;11.89;47.80;99703.81;7672630;22;98894;-64
2021/10/28 02:21:19;;;;;;;;;44.25;35.00;;;;;11.92;48.05;99710.69;7699946;22;96389;-63
2021/10/28 02:24:23;;;;;;;;;41.60;34.80;;;;;11.96;47.91;99712.75;7699359;22;97612;-65
2021/10/28 02:27:27;;;;;;;;;43.40;35.40;;;;;11.99;48.05;99711.47;7646150;22;99043;-64
2021/10/28 02:30:32;;;;;;;;;41.00;35.00;;;;;11.95;48.18;99708.38;7699830;22;96983;-65
2021/10/28 02:33:35;;;;;;;;;44.75;35.75;;;;;11.94;48.43;99708.56;7699614;22;97490;-65
2021/10/28 02:36:39;;;;;;;;;43.00;36.00;;;;;11.90;48.14;99707.34;7699181;22;97985;-64
2021/10/28 02:39:47;;;;;;;;;40.00;33.20;;;;;11.89;48.57;99714.63;7670786;22;98433;-65
2021/10/28 02:42:53;;;;;;;;;38.00;33.00;;;;;11.90;49.73;99715.44;7699181;22;97066;-64
2021/10/28 02:45:57;;;;;;;;;41.00;34.00;;;;;11.86;49.23;99714.22;7646543;22;96827;-64
2021/10/28 02:49:00;;;;;;;;;40.80;33.20;;;;;11.80;49.62;99699.66;7700290;22;96568;-65
2021/10/28 02:52:05;;;;;;;;;41.25;33.25;;;;;11.88;49.44;99712.94;7698194;22;97074;-65
2021/10/28 02:55:11;;;;;;;;;41.00;33.00;;;;;11.91;49.33;99712.53;7698804;22;98007;-64
2021/10/28 02:58:14;;;;;;;;;39.80;34.00;;;;;11.94;48.76;99711.28;7700244;22;97143;-63
2021/10/28 03:01:18;;;;;;;;;44.00;34.40;;;;;11.96;48.72;99715.44;7696220;22;96416;-65
2021/10/28 03:04:23;;;;;;;;;45.60;36.00;;;;;11.99;48.26;99714.19;7695972;22;96586;-63
2021/10/28 03:07:27;;;;;;;;;42.20;33.00;;;;;12.00;48.06;99718.56;7669767;22;97065;-63
2021/10/28 03:10:32;;;;;;;;;40.00;34.00;;;;;11.96;48.16;99718.16;7644064;22;99578;-65
2021/10/28 03:13:36;;;;;;;;;44.60;34.40;;;;;11.92;49.01;99725.03;7698289;22;97074;-65
2021/10/28 03:16:49;;;;;;;;;43.80;35.00;;;;;11.84;48.24;99721.69;7697953;22;97399;-63
2021/10/28 03:26:35;;;;;;;;;42.00;33.00;;;;;11.63;49.10;99726.22;7698786;22;97137;-65
2021/10/28 03:29:39;;;;;;;;;38.20;33.00;;;;;11.56;48.92;99725.41;7670508;22;98501;-64
2021/10/28 03:32:42;;;;;;;;;40.25;32.00;;;;;11.50;49.11;99725.41;7668606;22;98389;-64
2021/10/28 03:35:47;;;;;;;;;35.60;32.00;;;;;11.21;48.68;99705.88;7698096;22;96493;-63
2021/10/28 03:38:57;;;;;;;;;41.25;32.75;;;;;11.41;48.30;99748.25;7698670;22;96411;-64
2021/10/28 03:55:55;;;;;;;;;40.20;33.00;;;;;11.29;47.93;99739.91;7670219;22;97449;-66
2021/10/28 04:19:39;;;;;;;;;45.00;36.00;;;;;11.19;48.31;99761.91;7671688;22;96653;-65
2021/10/28 04:29:20;;;;;;;;;42.40;35.00;;;;;11.04;48.57;99769.38;7673049;22;97667;-66
2021/10/28 04:32:25;;;;;;;;;45.00;36.00;;;;;11.02;48.45;99760.63;7697764;22;97480;-64
2021/10/28 04:35:28;;;;;;;;;40.20;32.80;;;;;10.94;48.52;99762.69;7669050;22;97677;-64
2021/10/28 04:38:32;;;;;;;;;44.00;36.00;;;;;10.89;48.85;99762.47;7668331;22;97763;-64
2021/10/28 04:41:36;;;;;;;;;40.00;34.50;;;;;10.84;49.41;99755.81;7668035;22;96875;-65
2021/10/28 04:44:40;;;;;;;;;41.60;33.20;;;;;10.81;49.05;99768.84;7699563;22;97439;-65
2021/10/28 04:47:45;;;;;;;;;37.00;32.50;;;;;10.82;48.87;99765.97;7699059;22;96926;-62
2021/10/28 04:50:48;;;;;;;;;38.25;32.00;;;;;10.80;48.75;99761.78;7700817;22;96502;-61
2021/10/28 04:53:51;;;;;;;;;43.50;34.00;;;;;10.74;48.34;99755.38;7671211;22;96684;-61
2021/10/28 04:56:55;;;;;;;;;40.00;33.40;;;;;10.70;48.50;99756.78;7646614;22;96638;-61
2021/10/28 04:59:58;;;;;;;;;40.40;34.40;;;;;10.68;48.72;99760.72;7670315;22;96925;-63
2021/10/28 05:03:03;;;;;;;;;37.25;33.00;;;;;10.69;48.54;99763.22;7669471;22;97009;-61
2021/10/28 05:06:06;;;;;;;;;37.40;33.00;;;;;10.72;48.67;99764.66;7668656;22;98270;-63
2021/10/28 05:09:09;;;;;;;;;43.75;33.75;;;;;10.73;48.80;99767.19;7672320;22;96508;-64
2021/10/28 05:12:13;;;;;;;;;45.00;35.00;;;;;10.72;49.20;99770.06;7699105;22;97502;-62
2021/10/28 05:15:16;;;;;;;;;43.00;34.00;;;;;10.70;49.34;99772.94;7672368;22;96940;-64
2021/10/28 05:18:24;;;;;;;;;41.33;34.33;;;;;10.71;49.40;99766.53;7668541;22;97623;-63
2021/10/28 05:21:27;;;;;;;;;40.20;33.80;;;;;10.73;49.63;99771.75;7699325;22;97938;-63
2021/10/28 05:24:30;;;;;;;;;42.00;33.60;;;;;10.76;49.07;99766.75;7699066;22;97376;-69
2021/10/28 05:27:33;;;;;;;;;39.40;34.40;;;;;10.79;48.54;99769.06;7697923;22;96821;-64
2021/10/28 05:30:37;;;;;;;;;40.00;33.00;;;;;10.86;48.72;99774.47;7698571;22;97343;-62
2021/10/28 05:33:42;;;;;;;;;40.40;33.80;;;;;10.90;48.46;99767.63;7646340;22;96874;-63
2021/10/28 05:36:45;;;;;;;;;40.50;34.50;;;;;10.91;48.79;99766.63;7698007;22;96520;-65
2021/10/28 05:39:48;;;;;;;;;40.00;33.80;;;;;10.91;48.62;99774.69;7700594;22;97436;-63
2021/10/28 05:43:01;;;;;;;;;44.20;35.80;;;;;10.97;48.35;99765.81;7673768;22;96907;-63
2021/10/28 05:46:04;;;;;;;;;44.75;36.00;;;;;11.07;48.00;99765.41;7671580;22;97941;-65
2021/10/28 05:49:09;;;;;;;;;42.00;34.50;;;;;11.18;48.03;99762.97;7673658;22;96493;-62
2021/10/28 05:52:12;;;;;;;;;41.60;34.60;;;;;11.34;47.46;99777.94;7672326;22;98501;-64
2021/10/28 05:55:16;;;;;;;;;42.40;35.00;;;;;11.52;47.25;99769.25;7697289;22;97601;-61
2021/10/28 05:58:20;;;;;;;;;45.00;36.00;;;;;11.88;46.56;99776.97;7698131;22;96325;-65
2021/10/28 06:01:23;;;;;;;;;41.00;35.00;;;;;12.21;46.35;99780.50;7700147;22;97072;-62
2021/10/28 06:04:28;;;;;;;;;44.00;36.00;;;;;12.63;45.54;99778.28;7696469;22;96804;-67
2021/10/28 06:07:32;;;;;;;;;45.00;35.40;;;;;13.15;44.24;99772.66;7697564;22;97009;-65
2021/10/28 06:10:35;;;;;;;;;43.00;36.00;;;;;14.17;42.31;99780.44;7698659;22;96521;-66
2021/10/28 06:13:44;;;;;;;;;42.20;35.00;;;;;15.49;39.44;99778.88;7700366;22;97173;-66
2021/10/28 06:16:51;;;;;;;;;40.75;34.00;;;;;16.84;36.92;99785.13;7700935;22;96502;-63
2021/10/28 06:19:56;;;;;;;;;44.00;34.60;;;;;18.16;34.58;99785.69;7699339;22;97371;-64
2021/10/28 06:22:59;;;;;;;;;43.00;34.60;;;;;19.43;33.00;99790.94;7701434;22;96980;-66
2021/10/28 06:26:03;;;;;;;;;42.80;35.20;;;;;20.52;30.83;99788.63;7672282;22;96735;-66
2021/10/28 06:29:06;;;;;;;;;42.60;35.00;;;;;21.32;29.21;99790.09;7670113;22;97807;-65
2021/10/28 06:32:11;;;;;;;;;41.50;35.00;;;;;22.24;28.35;99799.28;7698560;22;97441;-66
2021/10/28 06:35:16;;;;;;;;;41.00;34.00;;;;;23.15;27.01;99791.66;7670945;22;98266;-64
2021/10/28 06:38:21;;;;;;;;;37.80;33.00;;;;;23.92;25.46;99786.53;7702607;22;98015;-63
2021/10/28 06:41:25;;;;;;;;;36.40;33.00;;;;;24.81;24.62;99797.00;7645041;22;96609;-64
2021/10/28 06:44:28;;;;;;;;;41.00;34.00;;;;;25.51;24.42;99796.44;7671701;22;97318;-63
2021/10/28 06:47:31;;;;;;;;;39.40;34.00;;;;;26.21;23.35;99802.81;7672282;22;96630;-65
2021/10/28 06:50:41;;;;;;;;;39.00;33.00;;;;;26.86;22.51;99797.22;7672784;22;96553;-66
2021/10/28 06:53:55;;;;;;;;;41.00;33.00;;;;;27.39;21.96;99811.34;7696525;22;97111;-66
2021/10/28 06:57:15;;;;;;;;;41.25;34.50;;;;;27.83;21.44;99810.66;7671886;22;98923;-64
2021/10/28 07:03:39;;;;;;;;;57.00;46.00;;;;;28.39;20.29;99810.13;7697076;22;97411;-65
2021/10/28 07:06:44;;;;;;;;;52.40;44.00;;;;;28.84;20.01;99808.91;7697610;22;96455;-67
2021/10/28 07:09:56;;;;;;;;;45.00;36.00;;;;;29.37;19.77;99802.41;7700092;22;97093;-65
2021/10/28 07:13:04;;;;;;;;;44.00;35.20;;;;;29.99;19.34;99807.75;7671802;22;96594;-66
2021/10/28 07:16:17;;;;;;;;;39.40;34.00;;;;;30.53;19.04;99789.50;7670095;22;97651;-65
2021/10/28 07:19:42;;;;;;;;;47.50;39.25;;;;;31.01;18.58;99791.09;7698262;22;96818;-66
2021/10/28 07:23:14;;;;;;;;;55.00;44.40;;;;;31.47;17.96;99787.44;7697270;22;96564;-66
2021/10/28 07:26:33;;;;;;;;;44.60;36.60;;;;;31.91;17.37;99784.00;7697735;22;98502;-66
2021/10/28 07:33:13;;;;;;;;;46.00;36.00;;;;;32.63;16.98;99782.63;7670975;22;96550;-63
2021/10/28 07:39:58;;;;;;;;;39.40;33.00;;;;;33.53;16.55;99778.81;7664342;22;96694;-66
2021/10/28 07:57:09;;;;;;;;;36.00;32.50;;;;;35.57;14.68;99772.34;7667855;22;98811;-65
2021/10/28 08:00:27;;;;;;;;;33.00;30.60;;;;;35.81;14.47;99767.66;7698041;22;97425;-64
2021/10/28 08:13:51;;;;;;;;;33.00;30.00;;;;;36.89;14.36;99756.91;7668819;22;97567;-65
2021/10/28 08:20:18;;;;;;;;;26.00;24.40;;;;;37.55;13.46;99749.09;7696570;22;97461;-64
2021/10/28 08:23:33;;;;;;;;;28.00;25.00;;;;;37.64;13.94;99750.44;7669514;22;96497;-64
2021/10/28 08:29:59;;;;;;;;;25.00;24.00;;;;;38.31;13.46;99760.91;7695965;22;96584;-64
2021/10/28 08:33:03;;;;;;;;;32.40;30.00;;;;;38.61;13.29;99755.97;7668721;22;97050;-66
2021/10/28 08:36:21;;;;;;;;;43.40;36.00;;;;;38.71;13.58;99757.31;7695934;22;96468;-66
2021/10/28 08:39:24;;;;;;;;;42.80;35.80;;;;;38.68;12.81;99746.78;7696835;22;96476;-64
2021/10/28 08:42:27;;;;;;;;;44.20;36.80;;;;;38.80;13.11;99732.41;7644708;22;96852;-66
2021/10/28 08:45:35;;;;;;;;;45.50;38.00;;;;;38.94;13.19;99741.00;7696245;22;96876;-65
2021/10/28 08:48:41;;;;;;;;;46.80;37.40;;;;;39.00;12.86;99736.59;7643372;22;98449;-63
2021/10/28 08:51:53;;;;;;;;;44.00;36.00;;;;;38.87;13.40;99732.44;7670269;22;97305;-63
2021/10/28 08:55:04;;;;;;;;;42.00;36.00;;;;;38.94;13.17;99732.56;7670018;22;97000;-62
2021/10/28 09:25:09;;;;;;;;;40.40;34.00;;;;;38.69;13.06;99726.69;7670055;22;97351;-67
2021/10/28 09:28:28;;;;;;;;;34.33;31.33;;;;;38.67;13.38;99719.81;7697973;22;97038;-65
2021/10/28 09:31:34;;;;;;;;;40.00;33.00;;;;;38.65;13.22;99706.13;7698483;22;97396;-66
2021/10/28 09:35:01;;;;;;;;;36.00;32.00;;;;;38.69;13.73;99708.97;7697697;22;97071;-66
2021/10/28 09:45:05;;;;;;;;;37.00;32.00;;;;;38.64;13.22;99700.88;7646659;22;98475;-64
2021/10/28 09:48:31;;;;;;;;;35.60;30.60;;;;;38.71;13.67;99700.94;7697947;22;97537;-63
2021/10/28 09:51:43;;;;;;;;;36.50;33.00;;;;;38.82;13.18;99699.00;7695803;22;97328;-65
2021/10/28 09:54:51;;;;;;;;;37.00;33.00;;;;;38.82;13.67;99684.88;7644140;22;97230;-63
2021/10/28 09:58:24;;;;;;;;;38.50;33.00;;;;;38.93;13.62;99683.81;7670389;22;96582;-65
2021/10/28 10:01:33;;;;;;;;;38.40;33.00;;;;;39.10;13.04;99687.13;7696997;22;96496;-65
2021/10/28 10:04:36;;;;;;;;;38.00;32.00;;;;;39.08;13.70;99679.06;7670511;22;98500;-65
2021/10/28 10:07:42;;;;;;;;;34.67;31.67;;;;;39.09;13.71;99680.69;7697619;22;97414;-64
2021/10/28 10:10:46;;;;;;;;;36.67;33.00;;;;;39.07;13.31;99676.63;7699677;22;96569;-63
2021/10/28 10:13:50;;;;;;;;;42.00;33.00;;;;;38.88;13.41;99677.72;7697606;22;97974;-66
2021/10/28 10:16:54;;;;;;;;;40.00;34.00;;;;;38.81;13.93;99680.44;7697113;22;97493;-65
2021/10/28 10:19:58;;;;;;;;;39.50;34.00;;;;;38.89;13.50;99673.72;7669890;22;97353;-66
2021/10/28 10:27:28;;;;;;;;;40.20;34.80;;;;;38.85;13.92;99670.03;7674059;22;97020;-65
2021/10/28 11:05:32;;;;;;;;;25.00;23.00;;;;;37.91;14.06;99644.22;7544069;23;97434;-63
2021/10/28 11:30:04;;;;;;;;;24.00;22.00;;;;;36.67;15.55;99608.00;7543870;23;97574;-66
2021/10/28 12:28:50;;;;;;;;;19.50;18.50;;;;;33.57;17.04;99550.44;6278806;27;96401;-63
2021/10/28 12:45:39;;;;;;;;;21.80;20.00;;;;;32.02;18.40;99534.13;6245067;27;97416;-64
2021/10/28 12:49:03;;;;;;;;;20.60;19.20;;;;;31.93;19.12;99532.63;6237922;27;97407;-66
2021/10/28 12:56:10;;;;;;;;;19.75;17.75;;;;;31.84;19.12;99524.38;6154698;28;99649;-65
2021/10/28 13:03:00;;;;;;;;;19.00;18.00;;;;;31.68;19.04;99521.44;6248418;27;96749;-63
2021/10/28 14:00:37;;;;;;;;;15.00;14.00;;;;;28.70;22.21;99497.38;6135152;28;99131;-66
2021/10/28 14:24:05;;;;;;;;;14.50;13.50;;;;;26.92;24.15;99497.16;6127588;28;96952;-64
2021/10/28 14:27:44;;;;;;;;;16.40;14.40;;;;;26.47;25.02;99488.78;6122975;28;97531;-66
2021/10/28 15:34:51;;;;;;;;;16.00;15.00;;;;;21.55;32.81;99490.53;6233500;28;97091;-64
2021/10/28 15:38:20;;;;;;;;;19.00;15.00;;;;;21.34;33.24;99494.44;6225137;28;97320;-66
2021/10/28 15:55:21;;;;;;;;;18.40;17.60;;;;;20.33;35.69;99493.56;6229047;28;97204;-62
2021/10/28 16:22:02;;;;;;;;;18.00;16.00;;;;;19.31;37.03;99492.22;6123650;28;96932;-64
2021/10/28 16:25:07;;;;;;;;;19.00;18.40;;;;;19.19;37.36;99495.16;6123929;28;97292;-62
2021/10/28 16:28:11;;;;;;;;;23.60;21.00;;;;;19.07;37.85;99488.22;6121366;28;98544;-64
2021/10/28 16:31:15;;;;;;;;;20.00;19.80;;;;;18.96;38.32;99485.41;6126555;28;97933;-63
2021/10/28 16:34:19;;;;;;;;;21.00;17.60;;;;;18.86;38.19;99485.34;6104527;28;97773;-64
2021/10/28 16:37:24;;;;;;;;;19.20;18.60;;;;;18.77;38.40;99489.63;6117760;28;97078;-65
2021/10/28 16:40:29;;;;;;;;;19.40;17.20;;;;;18.63;39.14;99482.97;6112616;28;96878;-64
2021/10/28 16:43:33;;;;;;;;;18.00;17.00;;;;;18.41;39.02;99463.91;6117072;28;96898;-64
2021/10/28 16:46:37;;;;;;;;;16.75;16.00;;;;;18.48;38.92;99477.31;6121536;28;97099;-65
2021/10/28 16:49:41;;;;;;;;;18.00;15.25;;;;;18.40;39.10;99480.53;6216343;28;98919;-65
2021/10/28 16:52:45;;;;;;;;;20.20;18.80;;;;;18.34;39.36;99487.00;6231799;28;98215;-67
2021/10/28 16:55:49;;;;;;;;;20.80;18.00;;;;;18.32;39.38;99486.47;6224050;28;97594;-65
2021/10/28 16:58:53;;;;;;;;;22.00;19.00;;;;;18.31;39.50;99484.81;6228343;28;97133;-68
2021/10/28 17:01:57;;;;;;;;;22.00;20.60;;;;;18.30;39.81;99483.16;6222709;27;96676;-69
2021/10/28 17:05:01;;;;;;;;;23.00;22.00;;;;;18.33;39.76;99483.44;6213558;28;98489;-69
2021/10/28 17:08:04;;;;;;;;;27.00;23.80;;;;;18.38;39.67;99483.50;6224712;28;97246;-68
2021/10/28 17:11:09;;;;;;;;;26.00;24.00;;;;;18.39;39.84;99481.59;6217811;28;98232;-70
2021/10/28 17:14:13;;;;;;;;;27.00;24.00;;;;;18.41;39.45;99471.25;6220653;28;98062;-68
2021/10/28 17:17:17;;;;;;;;;27.40;25.00;;;;;18.48;39.49;99475.41;6225705;28;98097;-68
2021/10/28 17:37:45;;;;;;;;;40.80;32.80;;;;;18.30;39.92;99477.69;7259065;22;98451;-66
2021/10/28 17:40:51;;;;;;;;;43.60;33.40;;;;;18.26;39.69;99474.66;6167916;28;98635;-69
2021/10/28 17:44:15;;;;;;;;;43.50;36.00;;;;;18.16;40.12;99478.13;6190907;28;97411;-68
2021/10/28 17:47:18;;;;;;;;;42.00;34.60;;;;;18.09;40.30;99471.19;6183394;28;97067;-67
2021/10/28 17:50:22;;;;;;;;;45.60;35.80;;;;;18.09;40.56;99474.75;6189704;28;96956;-68
2021/10/28 17:53:27;;;;;;;;;44.00;35.00;;;;;18.05;40.42;99476.34;6199002;28;97448;-67
2021/10/28 17:56:31;;;;;;;;;47.00;37.25;;;;;17.97;40.49;99467.78;6177985;28;96640;-67
2021/10/28 17:59:34;;;;;;;;;44.40;36.00;;;;;17.90;40.71;99475.34;6187116;28;97535;-67
2021/10/28 18:02:37;;;;;;;;;44.00;35.00;;;;;17.81;40.98;99466.78;6176178;28;98120;-65
2021/10/28 18:05:41;;;;;;;;;48.00;37.00;;;;;17.78;40.77;99472.75;6184753;28;97196;-67
2021/10/28 18:08:46;;;;;;;;;45.00;36.00;;;;;17.77;41.36;99471.09;6186804;28;97547;-70
2021/10/28 18:11:50;;;;;;;;;45.00;37.60;;;;;17.74;40.96;99471.59;6185450;28;97176;-66
2021/10/28 18:14:53;;;;;;;;;45.00;37.80;;;;;17.67;41.35;99465.53;6186987;28;96396;-69
2021/10/28 18:17:56;;;;;;;;;43.50;37.00;;;;;17.67;41.52;99455.44;6185320;28;96979;-68
2021/10/28 18:21:02;;;;;;;;;45.40;35.40;;;;;17.64;41.30;99453.22;6177706;28;97777;-66
2021/10/28 18:24:07;;;;;;;;;43.00;36.00;;;;;17.62;41.49;99455.38;6161039;28;97914;-68
2021/10/28 18:27:11;;;;;;;;;40.00;34.25;;;;;17.55;41.89;99451.97;6178766;28;97850;-66
2021/10/28 18:30:17;;;;;;;;;43.40;35.00;;;;;17.47;42.13;99454.31;6201108;28;97799;-67
2021/10/28 18:33:20;;;;;;;;;43.50;35.00;;;;;17.45;41.81;99445.56;6180742;28;97350;-68
2021/10/28 18:36:23;;;;;;;;;47.00;36.00;;;;;17.36;42.01;99447.91;6172077;28;97671;-67
2021/10/28 18:39:29;;;;;;;;;47.75;38.25;;;;;17.27;41.70;99446.69;6181975;28;96715;-67
2021/10/28 18:42:32;;;;;;;;;43.75;35.75;;;;;17.12;41.82;99441.84;6200800;28;98408;-67
2021/10/28 18:45:36;;;;;;;;;43.00;35.00;;;;;17.02;42.00;99436.25;6188933;28;98755;-68
2021/10/28 18:48:40;;;;;;;;;45.00;36.00;;;;;16.91;42.60;99444.53;6191039;28;97278;-68
2021/10/28 18:51:46;;;;;;;;;42.00;37.00;;;;;16.79;42.91;99439.19;6200571;28;97156;-64
2021/10/28 18:54:52;;;;;;;;;46.20;36.40;;;;;16.65;43.21;99440.59;6200528;28;97276;-65
2021/10/28 18:57:55;;;;;;;;;42.20;35.80;;;;;16.53;43.50;99442.53;6176441;28;97525;-64
2021/10/28 19:00:58;;;;;;;;;47.00;39.00;;;;;16.44;43.87;99432.06;6183036;28;98643;-66
2021/10/28 19:04:02;;;;;;;;;47.00;38.25;;;;;16.36;44.16;99426.19;6191284;28;97217;-68
2021/10/28 19:07:06;;;;;;;;;45.60;37.20;;;;;16.35;43.70;99424.53;6192801;28;97489;-70
2021/10/28 19:10:11;;;;;;;;;46.20;36.40;;;;;16.26;43.52;99426.84;6176522;28;97613;-66
2021/10/28 19:13:14;;;;;;;;;45.40;37.00;;;;;16.21;43.72;99418.59;6187441;28;96583;-67
2021/10/28 19:16:19;;;;;;;;;48.00;39.00;;;;;16.13;44.31;99420.88;6190404;28;97069;-67
2021/10/28 19:19:24;;;;;;;;;47.00;37.00;;;;;15.95;44.17;99406.41;6190778;28;97133;-67
2021/10/28 19:22:31;;;;;;;;;47.60;38.20;;;;;16.03;44.30;99418.78;6196284;28;97822;-64
2021/10/28 19:25:36;;;;;;;;;45.60;38.00;;;;;16.01;44.07;99420.94;6196603;28;96904;-66
2021/10/28 19:28:41;;;;;;;;;46.00;37.60;;;;;15.95;44.31;99419.19;6202398;28;97329;-67
2021/10/28 19:31:52;;;;;;;;;47.60;39.00;;;;;15.90;44.21;99414.47;6198239;28;96977;-66
2021/10/28 19:34:56;;;;;;;;;46.50;38.00;;;;;15.81;44.36;99429.53;6192603;28;97438;-67
2021/10/28 19:38:05;;;;;;;;;47.00;38.40;;;;;15.74;45.23;99422.56;6197037;28;97112;-64
2021/10/28 19:48:01;;;;;;;;;49.50;40.00;;;;;15.49;45.54;99417.44;6185438;28;97358;-69
2021/10/28 19:51:05;;;;;;;;;50.20;40.20;;;;;15.45;45.66;99410.81;6181903;28;98937;-66
2021/10/28 19:54:12;;;;;;;;;49.00;41.00;;;;;15.43;45.65;99413.81;6178582;28;97615;-68
2021/10/28 19:57:20;;;;;;;;;50.00;41.00;;;;;15.37;45.69;99406.59;6181922;28;98896;-67
2021/10/28 20:00:29;;;;;;;;;49.80;39.20;;;;;15.36;45.32;99406.84;6191406;28;96806;-68
2021/10/28 20:07:11;;;;;;;;;46.00;38.00;;;;;15.28;44.89;99409.94;6148227;28;97719;-68
2021/10/28 20:13:56;;;;;;;;;52.50;41.00;;;;;15.23;45.47;99412.53;6195789;28;97747;-66
2021/10/28 20:20:26;;;;;;;;;50.40;40.80;;;;;15.07;44.63;99414.91;6198749;28;97329;-66
2021/10/28 20:23:31;;;;;;;;;50.20;40.60;;;;;14.94;45.44;99409.75;6202689;28;96633;-65
2021/10/28 20:26:35;;;;;;;;;53.20;42.20;;;;;14.79;46.00;99408.56;6195884;28;96536;-66
2021/10/28 20:29:40;;;;;;;;;52.00;42.40;;;;;14.69;45.97;99411.88;6199542;28;97554;-64
2021/10/28 20:32:43;;;;;;;;;57.40;45.00;;;;;14.73;47.15;99427.44;6186523;28;98168;-64
2021/10/28 20:36:06;;;;;;;;;60.00;48.00;;;;;14.72;47.60;99408.66;6185558;28;97316;-66
2021/10/28 20:39:10;;;;;;;;;59.80;47.00;;;;;14.88;47.03;99426.16;6201313;28;97020;-64
2021/10/28 20:42:16;;;;;;;;;61.00;48.00;;;;;14.84;46.67;99417.66;6197638;28;97487;-66
2021/10/28 20:45:24;;;;;;;;;62.00;48.60;;;;;14.83;47.34;99416.00;6186076;28;97260;-67
2021/10/28 20:48:27;;;;;;;;;63.00;48.33;;;;;14.80;47.59;99419.19;6189667;28;97648;-66
2021/10/28 20:51:31;;;;;;;;;64.00;48.00;;;;;14.78;47.71;99418.59;6192136;28;97955;-66
2021/10/28 20:54:35;;;;;;;;;63.60;50.00;;;;;14.80;47.59;99418.38;6199248;28;98161;-67
2021/10/28 21:15:27;;;;;;;;;67.40;52.00;;;;;14.82;47.97;99405.38;6214007;28;97115;-66
2021/10/28 21:18:31;;;;;;;;;67.00;50.00;;;;;14.81;47.91;99396.41;6193700;28;97308;-67
2021/10/28 21:21:35;;;;;;;;;64.60;51.00;;;;;14.79;47.59;99395.00;6183948;28;97367;-67
2021/10/28 21:24:40;;;;;;;;;66.60;51.00;;;;;14.72;48.15;99395.94;6203517;28;97345;-66
2021/10/28 21:27:44;;;;;;;;;67.60;53.00;;;;;14.73;48.22;99396.75;6173596;28;97776;-66
2021/10/28 21:31:09;;;;;;;;;65.75;50.75;;;;;14.71;48.13;99385.31;6199061;28;97462;-65
2021/10/28 21:34:12;;;;;;;;;68.80;53.00;;;;;14.67;47.98;99389.56;6206142;28;97010;-64
2021/10/28 21:37:18;;;;;;;;;67.00;51.40;;;;;14.45;47.98;99375.75;6202106;28;97561;-65
2021/10/28 21:40:22;;;;;;;;;67.00;50.60;;;;;14.54;47.72;99395.22;6204495;28;97462;-67
2021/10/28 21:43:25;;;;;;;;;64.60;50.00;;;;;14.43;48.00;99385.19;6201400;28;99636;-65
2021/10/28 21:46:34;;;;;;;;;67.40;52.00;;;;;14.35;48.24;99383.63;6198578;28;97103;-66
2021/10/28 21:49:38;;;;;;;;;64.60;50.60;;;;;14.36;48.29;99385.31;6192541;28;97427;-66
2021/10/28 21:52:45;;;;;;;;;67.00;50.25;;;;;14.33;48.17;99383.00;6192262;28;97844;-66
2021/10/28 21:56:03;;;;;;;;;65.40;50.80;;;;;14.26;47.85;99383.13;6183295;28;97412;-65
2021/10/28 22:02:48;;;;;;;;;68.00;50.75;;;;;14.20;47.71;99380.53;6191669;28;100349;-67
2021/10/28 22:25:58;;;;;;;;;64.60;50.00;;;;;14.20;48.60;99353.41;6194137;28;99082;-66
2021/10/28 22:29:01;;;;;;;;;64.00;51.00;;;;;14.15;48.76;99354.09;6191505;28;97444;-67
2021/10/28 22:32:06;;;;;;;;;62.60;50.40;;;;;14.17;48.35;99362.81;6198380;28;97299;-66
2021/10/28 22:35:14;;;;;;;;;66.00;50.00;;;;;14.14;48.56;99359.75;6201518;28;96876;-66
2021/10/28 22:38:19;;;;;;;;;65.20;51.40;;;;;14.12;48.89;99364.59;6196392;28;97278;-66
2021/10/28 22:41:23;;;;;;;;;65.50;51.00;;;;;14.00;48.39;99344.75;6187506;28;98276;-65
2021/10/28 22:44:26;;;;;;;;;65.40;50.20;;;;;14.04;48.70;99357.63;6192258;28;97599;-66
2021/10/28 22:47:29;;;;;;;;;64.00;50.00;;;;;14.01;49.05;99358.09;6189283;28;97235;-67
2021/10/28 22:50:35;;;;;;;;;65.20;49.80;;;;;14.08;48.51;99357.97;6195399;28;97899;-67
2021/10/28 22:53:38;;;;;;;;;65.50;51.00;;;;;14.06;48.42;99357.38;6197123;28;97176;-66
2021/10/28 22:56:43;;;;;;;;;68.00;52.00;;;;;13.99;48.50;99349.34;6181356;28;97353;-65
2021/10/28 22:59:47;;;;;;;;;66.75;51.50;;;;;13.91;48.37;99340.72;6211904;28;98187;-67
2021/10/28 23:03:01;;;;;;;;;66.80;51.60;;;;;13.82;48.63;99338.38;6208108;28;96927;-65